Time;durP1;ratioP1;P1;durP2;ratioP2;P2;SDS_P1;SDS_P2;PMS_P1;PMS_P2;Temp;Humidity;BMP_temperature;BMP_pressure;BME280_temperature;BME280_humidity;BME280_pressure;Samples;Min_cycle;Max_cycle;Signal;HPM_P1;HPM_P2
2023/11/16 00:00:35;;;;;;;48.55;21.30;;;18.10;99.90;;;;;;5011996;28;20160;-66
2023/11/16 00:03:05;;;;;;;58.33;22.27;;;18.10;99.90;;;;;;5007538;28;20097;-68
2023/11/16 00:05:35;;;;;;;53.88;22.45;;;18.10;99.90;;;;;;5013552;28;20517;-65
2023/11/16 00:08:07;;;;;;;54.20;22.88;;;18.20;99.90;;;;;;5011474;28;20078;-67
2023/11/16 00:10:39;;;;;;;60.38;24.83;;;18.10;99.90;;;;;;5012956;28;20129;-67
2023/11/16 00:13:06;;;;;;;51.95;24.65;;;18.00;99.90;;;;;;5012808;28;20114;-66
2023/11/16 00:15:33;;;;;;;45.95;25.23;;;18.00;99.90;;;;;;5011962;28;20080;-65
2023/11/16 00:18:04;;;;;;;46.60;23.98;;;18.10;99.90;;;;;;5011514;28;20233;-68
2023/11/16 00:20:32;;;;;;;60.65;26.30;;;18.10;99.90;;;;;;5010833;28;20103;-65
2023/11/16 00:22:59;;;;;;;68.15;23.02;;;18.20;99.90;;;;;;5012659;28;20101;-69
2023/11/16 00:25:26;;;;;;;55.53;21.83;;;18.20;99.90;;;;;;5012500;28;20547;-68
2023/11/16 00:27:52;;;;;;;39.92;20.67;;;18.00;99.90;;;;;;5009530;28;20093;-67
2023/11/16 00:30:19;;;;;;;52.08;19.08;;;17.90;99.90;;;;;;5011224;28;20105;-68
2023/11/16 00:32:45;;;;;;;45.88;19.17;;;18.00;99.90;;;;;;5012947;28;20105;-69
2023/11/16 00:35:12;;;;;;;40.92;19.70;;;18.00;99.90;;;;;;5012161;28;20078;-68
2023/11/16 00:37:38;;;;;;;55.40;21.30;;;18.10;99.90;;;;;;5012597;28;20082;-66
2023/11/16 00:40:05;;;;;;;42.20;21.73;;;18.10;99.90;;;;;;5012296;28;20078;-67
2023/11/16 00:42:32;;;;;;;39.72;20.55;;;18.00;99.90;;;;;;5012467;28;20141;-67
2023/11/16 00:44:58;;;;;;;41.83;20.60;;;18.10;99.90;;;;;;5011236;28;20140;-68
2023/11/16 00:47:25;;;;;;;48.03;22.23;;;18.00;99.90;;;;;;5012358;28;20077;-69
2023/11/16 00:49:51;;;;;;;49.60;22.05;;;18.00;99.90;;;;;;5010736;28;20181;-69
2023/11/16 00:52:20;;;;;;;44.55;20.88;;;18.10;99.90;;;;;;5012485;28;20082;-70
2023/11/16 00:54:48;;;;;;;57.40;22.65;;;18.00;99.90;;;;;;5012554;28;20088;-69
2023/11/16 00:57:18;;;;;;;52.67;21.95;;;18.00;99.90;;;;;;5011391;28;20067;-69
2023/11/16 00:59:46;;;;;;;41.95;21.02;;;17.90;99.90;;;;;;5012066;28;20071;-67
2023/11/16 01:02:13;;;;;;;50.70;21.70;;;18.00;99.90;;;;;;5010512;28;20120;-68
2023/11/16 01:04:41;;;;;;;50.00;20.33;;;18.00;99.90;;;;;;5011941;28;20077;-68
2023/11/16 01:07:10;;;;;;;48.65;21.35;;;18.10;99.90;;;;;;5010330;28;20533;-68
2023/11/16 01:09:37;;;;;;;43.92;20.75;;;18.10;99.90;;;;;;5012046;28;20216;-69
2023/11/16 01:12:07;;;;;;;50.05;22.98;;;18.10;99.90;;;;;;5011975;28;20081;-68
2023/11/16 01:14:33;;;;;;;53.78;21.77;;;18.10;99.90;;;;;;5011712;28;20140;-67
2023/11/16 01:17:04;;;;;;;40.35;20.60;;;18.10;99.90;;;;;;5011979;28;20528;-68
2023/11/16 01:19:32;;;;;;;38.33;18.73;;;18.10;99.90;;;;;;5010629;28;20082;-71
2023/11/16 01:22:00;;;;;;;53.45;18.67;;;18.10;99.90;;;;;;5012449;28;20148;-69
2023/11/16 01:24:28;;;;;;;37.58;18.17;;;18.10;99.90;;;;;;5011799;28;20082;-69
2023/11/16 01:27:12;;;;;;;34.90;17.00;;;18.00;99.90;;;;;;5009862;28;20080;-67
2023/11/16 01:29:39;;;;;;;49.00;19.17;;;18.00;99.90;;;;;;5010734;28;20180;-72
2023/11/16 01:32:06;;;;;;;47.13;17.70;;;17.90;99.90;;;;;;5011455;28;20147;-69
2023/11/16 01:34:32;;;;;;;48.72;19.80;;;17.90;99.90;;;;;;5011573;28;20070;-69
2023/11/16 01:37:03;;;;;;;49.15;19.55;;;17.90;99.90;;;;;;5015563;28;20165;-69
2023/11/16 01:39:33;;;;;;;43.55;16.85;;;17.90;99.90;;;;;;5010499;28;20259;-68
2023/11/16 01:41:59;;;;;;;46.60;17.83;;;17.90;99.90;;;;;;5000303;28;20159;-68
2023/11/16 01:44:26;;;;;;;46.97;18.10;;;17.90;99.90;;;;;;5011307;28;20093;-68
2023/11/16 01:46:53;;;;;;;42.13;16.83;;;17.90;99.90;;;;;;5009707;28;20548;-69
2023/11/16 01:49:20;;;;;;;43.85;17.67;;;17.90;99.90;;;;;;5011174;28;20098;-69
2023/11/16 01:51:46;;;;;;;38.33;17.65;;;18.00;99.90;;;;;;5011501;28;20082;-70
2023/11/16 01:54:17;;;;;;;42.65;16.40;;;18.00;99.90;;;;;;5008002;28;20120;-70
2023/11/16 01:56:47;;;;;;;36.38;18.00;;;18.00;99.90;;;;;;5010824;28;20128;-69
2023/11/16 01:59:14;;;;;;;52.08;18.45;;;18.10;99.90;;;;;;5010961;28;20086;-71
2023/11/16 02:01:42;;;;;;;40.58;15.25;;;18.10;99.90;;;;;;5012814;28;20085;-73
2023/11/16 02:04:09;;;;;;;49.80;16.63;;;18.10;99.90;;;;;;5010574;28;20132;-72
2023/11/16 02:06:36;;;;;;;28.70;13.02;;;18.00;99.90;;;;;;5010871;28;20070;-70
2023/11/16 02:09:02;;;;;;;29.10;11.98;;;18.10;99.90;;;;;;5010833;28;20085;-68
2023/11/16 02:11:29;;;;;;;26.67;10.63;;;18.00;99.90;;;;;;5009153;28;20121;-70
2023/11/16 02:13:55;;;;;;;24.95;9.60;;;18.10;99.90;;;;;;5010869;28;20087;-72
2023/11/16 02:16:22;;;;;;;20.83;9.48;;;18.10;99.90;;;;;;5011088;28;20136;-72
2023/11/16 02:18:48;;;;;;;19.88;8.25;;;18.10;99.90;;;;;;5010137;28;20074;-69
2023/11/16 02:21:15;;;;;;;22.70;8.90;;;18.20;99.90;;;;;;5007378;28;20172;-68
2023/11/16 02:23:43;;;;;;;16.02;7.80;;;18.10;99.90;;;;;;5010326;28;20467;-72
2023/11/16 02:26:10;;;;;;;18.45;7.05;;;18.10;99.90;;;;;;5009448;28;20086;-70
2023/11/16 02:28:36;;;;;;;18.17;6.80;;;18.10;99.90;;;;;;5009085;28;20142;-69
2023/11/16 02:31:03;;;;;;;18.25;6.40;;;18.20;99.90;;;;;;5010990;28;20523;-68
2023/11/16 02:33:30;;;;;;;15.60;5.65;;;18.20;99.90;;;;;;5012155;28;20078;-70
2023/11/16 02:35:57;;;;;;;17.27;4.78;;;18.20;99.90;;;;;;5018476;28;20077;-67
2023/11/16 02:38:24;;;;;;;10.38;4.60;;;18.30;99.90;;;;;;5021419;28;20105;-69
2023/11/16 02:40:51;;;;;;;12.02;4.05;;;18.30;99.90;;;;;;5018110;28;20148;-67
2023/11/16 02:43:20;;;;;;;17.33;6.20;;;18.30;99.90;;;;;;5017277;28;20166;-69
2023/11/16 02:45:48;;;;;;;16.83;6.95;;;18.30;99.90;;;;;;5016461;28;20086;-69
2023/11/16 02:48:15;;;;;;;16.55;8.00;;;18.20;99.90;;;;;;5015572;28;20086;-72
2023/11/16 02:50:42;;;;;;;15.32;8.57;;;18.00;99.90;;;;;;5008278;28;20118;-70
2023/11/16 02:53:10;;;;;;;23.17;10.35;;;18.00;99.90;;;;;;5010545;28;20132;-70
2023/11/16 02:55:36;;;;;;;17.05;8.68;;;18.00;99.90;;;;;;5012591;28;20078;-67
2023/11/16 02:58:03;;;;;;;12.80;7.47;;;18.00;99.90;;;;;;5013365;28;20080;-69
2023/11/16 03:00:32;;;;;;;17.77;7.95;;;17.90;99.90;;;;;;5015328;28;20105;-70
2023/11/16 03:03:02;;;;;;;12.68;7.00;;;17.80;99.90;;;;;;5009949;28;20112;-73
2023/11/16 03:05:28;;;;;;;10.02;6.82;;;17.70;99.90;;;;;;5009465;28;20082;-71
2023/11/16 03:07:55;;;;;;;9.73;6.40;;;17.60;99.90;;;;;;5010356;28;20173;-73
2023/11/16 03:10:21;;;;;;;9.50;7.03;;;17.50;99.90;;;;;;5009974;28;20101;-73
2023/11/16 03:12:48;;;;;;;15.15;7.13;;;17.50;99.90;;;;;;5009475;28;20096;-71
2023/11/16 03:15:14;;;;;;;11.50;7.50;;;17.50;99.90;;;;;;5010215;28;20113;-71
2023/11/16 03:17:45;;;;;;;16.65;7.93;;;17.50;99.90;;;;;;5010135;28;20076;-71
2023/11/16 03:20:17;;;;;;;15.75;8.15;;;17.50;99.90;;;;;;5009744;28;20109;-67
2023/11/16 03:22:44;;;;;;;15.35;8.15;;;17.40;99.90;;;;;;4995800;28;20517;-70
2023/11/16 03:25:11;;;;;;;12.80;7.25;;;17.30;99.90;;;;;;5009885;28;20070;-69
2023/11/16 03:27:37;;;;;;;10.38;6.53;;;17.40;99.90;;;;;;5009978;28;20127;-70
2023/11/16 03:30:05;;;;;;;17.08;6.63;;;17.40;99.90;;;;;;5008205;28;20093;-68
2023/11/16 03:32:31;;;;;;;11.90;7.15;;;17.40;99.90;;;;;;5008529;28;20076;-70
2023/11/16 03:34:58;;;;;;;11.63;7.43;;;17.30;99.90;;;;;;5009887;28;20148;-70
2023/11/16 03:37:24;;;;;;;11.10;6.95;;;17.40;99.90;;;;;;5008071;28;20472;-70
2023/11/16 03:39:51;;;;;;;10.68;7.18;;;17.30;99.90;;;;;;5009324;28;20116;-70
2023/11/16 03:42:18;;;;;;;10.40;6.78;;;17.30;99.90;;;;;;5008199;28;20187;-68
2023/11/16 03:44:44;;;;;;;9.23;6.97;;;17.40;99.90;;;;;;5008850;28;20448;-70
2023/11/16 03:47:11;;;;;;;12.27;7.03;;;17.40;99.90;;;;;;5009734;28;20078;-70
2023/11/16 03:49:37;;;;;;;8.80;6.50;;;17.40;99.90;;;;;;5009725;28;20591;-71
2023/11/16 03:52:04;;;;;;;10.68;6.43;;;17.40;99.90;;;;;;5008894;28;20518;-68
2023/11/16 03:54:31;;;;;;;11.48;5.82;;;17.40;99.90;;;;;;5015707;28;20124;-68
2023/11/16 03:56:57;;;;;;;10.88;6.63;;;17.40;99.90;;;;;;5009959;28;20078;-69
2023/11/16 03:59:24;;;;;;;11.30;6.40;;;17.30;99.90;;;;;;5009502;28;20112;-71
2023/11/16 04:01:51;;;;;;;14.20;6.88;;;17.40;99.90;;;;;;5003990;28;20447;-68
2023/11/16 04:04:19;;;;;;;11.55;8.68;;;17.40;99.90;;;;;;5010856;28;20077;-69
2023/11/16 04:06:49;;;;;;;10.48;7.60;;;17.30;99.90;;;;;;5016777;28;20092;-69
2023/11/16 04:09:16;;;;;;;19.45;8.32;;;17.40;99.90;;;;;;5012888;28;20152;-68
2023/11/16 04:11:44;;;;;;;21.85;11.05;;;17.30;99.90;;;;;;5013456;28;20172;-67
2023/11/16 04:14:12;;;;;;;15.35;10.73;;;17.30;99.90;;;;;;5012927;28;20479;-68
2023/11/16 04:16:38;;;;;;;21.38;10.73;;;17.20;99.90;;;;;;5012416;28;20192;-67
2023/11/16 04:19:05;;;;;;;22.65;14.10;;;17.20;99.90;;;;;;5012994;28;20085;-68
2023/11/16 04:21:36;;;;;;;23.35;18.55;;;17.20;99.90;;;;;;5010984;28;20161;-68
2023/11/16 04:24:10;;;;;;;27.77;17.90;;;17.10;99.90;;;;;;5012307;28;20078;-69
2023/11/16 04:26:38;;;;;;;30.30;16.23;;;17.10;99.90;;;;;;5012109;28;20077;-67
2023/11/16 04:29:06;;;;;;;21.48;15.20;;;17.00;99.90;;;;;;5012684;28;20086;-66
2023/11/16 04:31:34;;;;;;;22.63;14.32;;;17.10;99.90;;;;;;5013128;28;20082;-67
2023/11/16 04:34:01;;;;;;;18.00;13.18;;;17.00;99.90;;;;;;5011072;28;20552;-66
2023/11/16 04:36:30;;;;;;;20.65;13.85;;;16.90;99.90;;;;;;5012612;28;20082;-68
2023/11/16 04:38:57;;;;;;;20.65;13.93;;;16.90;99.90;;;;;;5012687;28;20564;-68
2023/11/16 04:41:25;;;;;;;21.73;14.30;;;16.90;99.90;;;;;;5010742;28;20515;-69
2023/11/16 04:43:54;;;;;;;26.60;16.55;;;16.90;99.90;;;;;;5012512;28;20085;-67
2023/11/16 04:46:22;;;;;;;26.38;17.60;;;16.90;99.90;;;;;;5012517;28;20078;-68
2023/11/16 04:48:48;;;;;;;33.03;19.35;;;16.80;99.90;;;;;;5011501;28;20097;-68
2023/11/16 04:51:19;;;;;;;31.75;18.00;;;16.70;99.90;;;;;;5009564;28;20086;-68
2023/11/16 04:53:49;;;;;;;33.53;19.27;;;16.80;99.90;;;;;;5012401;28;20087;-69
2023/11/16 04:56:16;;;;;;;28.35;16.45;;;16.70;99.90;;;;;;5012460;28;20078;-68
2023/11/16 04:58:44;;;;;;;25.80;15.65;;;16.70;99.90;;;;;;5010631;28;20073;-68
2023/11/16 05:01:14;;;;;;;24.58;16.27;;;16.60;99.90;;;;;;5011962;28;20118;-69
2023/11/16 05:03:40;;;;;;;25.52;16.40;;;16.70;99.90;;;;;;5012201;28;20078;-67
2023/11/16 05:06:08;;;;;;;29.52;17.95;;;16.70;99.90;;;;;;5011865;28;20084;-69
2023/11/16 05:08:34;;;;;;;29.75;18.77;;;16.60;99.90;;;;;;5013036;28;20089;-68
2023/11/16 05:11:00;;;;;;;23.60;17.60;;;16.50;99.90;;;;;;5014391;28;20105;-67
2023/11/16 05:13:27;;;;;;;25.80;16.63;;;16.60;99.90;;;;;;5009748;28;20089;-68
2023/11/16 05:15:53;;;;;;;28.48;18.77;;;16.60;99.90;;;;;;5012070;28;20093;-69
2023/11/16 05:18:22;;;;;;;23.52;17.23;;;16.60;99.90;;;;;;5012110;28;20085;-68
2023/11/16 05:20:48;;;;;;;26.67;17.98;;;16.70;99.90;;;;;;5011507;28;20515;-68
2023/11/16 05:23:17;;;;;;;21.50;13.98;;;16.60;99.90;;;;;;5010184;28;20081;-68
2023/11/16 05:25:44;;;;;;;21.90;13.88;;;16.60;99.90;;;;;;5011602;28;20437;-69
2023/11/16 05:28:11;;;;;;;18.98;13.50;;;16.50;99.90;;;;;;5011740;28;20078;-67
2023/11/16 05:30:38;;;;;;;22.23;14.63;;;16.50;99.90;;;;;;5010179;28;20471;-68
2023/11/16 05:33:05;;;;;;;24.65;15.85;;;16.50;99.90;;;;;;5011735;28;20077;-68
2023/11/16 05:35:32;;;;;;;19.27;14.85;;;16.50;99.90;;;;;;5010083;28;20074;-68
2023/11/16 05:37:59;;;;;;;33.33;17.73;;;16.50;99.90;;;;;;5010979;28;20135;-67
2023/11/16 05:40:29;;;;;;;27.70;19.33;;;16.40;99.90;;;;;;5010995;28;20157;-67
2023/11/16 05:42:56;;;;;;;32.55;21.90;;;16.40;99.90;;;;;;5010568;28;20125;-69
2023/11/16 05:45:22;;;;;;;32.95;21.95;;;16.40;99.90;;;;;;5008034;28;20127;-67
2023/11/16 05:47:49;;;;;;;39.88;24.73;;;16.40;99.90;;;;;;5010550;28;20080;-68
2023/11/16 05:50:17;;;;;;;40.35;25.67;;;16.40;99.90;;;;;;5009569;28;20095;-69
2023/11/16 05:52:43;;;;;;;41.20;26.88;;;16.40;99.90;;;;;;5009548;28;20430;-67
2023/11/16 05:55:10;;;;;;;32.13;24.00;;;16.40;99.90;;;;;;5011176;28;20447;-67
2023/11/16 05:57:36;;;;;;;42.65;24.05;;;16.40;99.90;;;;;;5011295;28;20093;-67
2023/11/16 06:00:07;;;;;;;35.75;22.95;;;16.40;99.90;;;;;;5009352;28;20474;-67
2023/11/16 06:02:34;;;;;;;33.63;23.02;;;16.40;99.90;;;;;;5011221;28;20087;-66
2023/11/16 06:05:01;;;;;;;44.78;26.85;;;16.40;99.90;;;;;;5011199;28;20115;-66
2023/11/16 06:07:29;;;;;;;35.67;24.05;;;16.50;99.90;;;;;;5012182;28;20078;-67
2023/11/16 06:09:55;;;;;;;41.78;25.52;;;16.40;99.90;;;;;;5009848;28;20093;-69
2023/11/16 06:12:23;;;;;;;41.45;24.77;;;16.50;99.90;;;;;;5011563;28;20106;-69
2023/11/16 06:14:55;;;;;;;45.30;28.10;;;16.50;99.90;;;;;;5010818;28;20148;-68
2023/11/16 06:17:22;;;;;;;50.45;29.42;;;16.50;99.90;;;;;;5009827;28;20128;-67
2023/11/16 06:19:49;;;;;;;48.47;30.95;;;16.40;99.90;;;;;;5010771;28;20074;-72
2023/11/16 06:22:16;;;;;;;46.42;28.30;;;16.40;99.90;;;;;;5009313;28;20086;-70
2023/11/16 06:24:42;;;;;;;39.85;27.83;;;16.40;99.90;;;;;;5011997;28;20139;-64
2023/11/16 06:27:09;;;;;;;43.05;28.10;;;16.40;99.90;;;;;;5010086;28;20508;-64
2023/11/16 06:29:36;;;;;;;39.63;28.08;;;16.20;99.90;;;;;;5008798;28;20091;-63
2023/11/16 06:32:05;;;;;;;42.40;29.25;;;16.20;99.90;;;;;;5010135;28;20113;-63
2023/11/16 06:34:33;;;;;;;41.45;27.17;;;16.10;99.90;;;;;;5009637;28;20094;-63
2023/11/16 06:37:00;;;;;;;41.55;28.83;;;16.00;99.90;;;;;;5010460;28;20084;-61
2023/11/16 06:39:28;;;;;;;43.13;27.90;;;16.00;99.90;;;;;;5010127;28;20094;-63
2023/11/16 06:41:56;;;;;;;59.45;46.47;;;16.00;99.90;;;;;;5008576;28;20161;-63
2023/11/16 06:44:22;;;;;;;41.95;28.80;;;16.00;99.90;;;;;;5010285;28;20098;-64
2023/11/16 06:46:49;;;;;;;48.92;36.13;;;15.90;99.90;;;;;;5008553;28;20418;-64
2023/11/16 06:49:16;;;;;;;28.20;22.30;;;15.80;99.90;;;;;;5009104;28;20568;-63
2023/11/16 06:51:43;;;;;;;23.65;16.77;;;15.70;99.90;;;;;;5009209;28;20091;-62
2023/11/16 06:54:11;;;;;;;23.60;16.50;;;15.70;99.90;;;;;;5010269;28;20485;-63
2023/11/16 06:56:40;;;;;;;26.27;17.38;;;15.70;99.90;;;;;;5010111;28;20098;-63
2023/11/16 06:59:12;;;;;;;22.88;16.20;;;15.60;99.90;;;;;;5008476;28;20354;-65
2023/11/16 07:01:43;;;;;;;23.55;15.57;;;15.60;99.90;;;;;;5008208;28;20105;-64
2023/11/16 07:04:09;;;;;;;26.85;17.52;;;15.60;99.90;;;;;;5010118;28;20070;-64
2023/11/16 07:06:37;;;;;;;24.85;17.17;;;15.50;99.90;;;;;;5010289;28;20098;-64
2023/11/16 07:09:03;;;;;;;28.60;17.08;;;15.60;99.90;;;;;;5009140;28;20086;-65
2023/11/16 07:11:31;;;;;;;27.63;16.90;;;15.60;99.90;;;;;;5009338;28;20100;-62
2023/11/16 07:13:57;;;;;;;25.50;16.70;;;15.70;99.90;;;;;;5009770;28;20560;-62
2023/11/16 07:16:24;;;;;;;21.52;16.08;;;15.70;99.90;;;;;;5008288;28;20074;-64
2023/11/16 07:18:52;;;;;;;23.92;16.08;;;15.70;99.90;;;;;;5009861;28;20639;-63
2023/11/16 07:21:18;;;;;;;24.88;18.45;;;15.60;99.90;;;;;;5009669;28;20088;-64
2023/11/16 07:23:45;;;;;;;25.33;16.98;;;15.60;99.90;;;;;;5009938;28;20086;-62
2023/11/16 07:26:11;;;;;;;22.73;16.67;;;15.60;99.90;;;;;;5008328;28;20512;-64
2023/11/16 07:28:42;;;;;;;21.92;17.33;;;15.60;99.90;;;;;;5009840;28;20087;-63
2023/11/16 07:31:09;;;;;;;22.20;16.23;;;15.60;99.90;;;;;;5009476;28;20095;-63
2023/11/16 07:33:35;;;;;;;25.90;17.05;;;15.60;99.90;;;;;;5008056;28;20081;-62
2023/11/16 07:36:02;;;;;;;24.33;17.73;;;15.60;99.90;;;;;;5009712;28;20098;-63
2023/11/16 07:38:29;;;;;;;29.42;19.45;;;15.60;99.90;;;;;;5013096;28;20092;-63
2023/11/16 07:40:58;;;;;;;23.38;16.73;;;15.60;99.90;;;;;;5011692;28;20166;-64
2023/11/16 07:43:25;;;;;;;29.10;20.98;;;15.60;99.90;;;;;;5013585;28;20086;-66
2023/11/16 07:45:52;;;;;;;27.20;17.98;;;15.60;99.90;;;;;;5012017;28;20096;-63
2023/11/16 07:48:19;;;;;;;27.10;18.10;;;15.60;99.90;;;;;;5013360;28;20105;-62
2023/11/16 07:50:46;;;;;;;25.52;18.77;;;15.60;99.90;;;;;;5013347;28;20126;-65
2023/11/16 07:53:13;;;;;;;27.67;19.58;;;15.50;99.90;;;;;;5011706;28;20169;-65
2023/11/16 07:55:42;;;;;;;27.70;20.73;;;15.50;99.90;;;;;;5013392;28;20085;-62
2023/11/16 07:58:12;;;;;;;24.20;17.65;;;15.50;99.90;;;;;;5013571;28;20078;-64
2023/11/16 08:00:55;;;;;;;24.92;18.42;;;15.50;99.90;;;;;;5011260;28;20090;-64
2023/11/16 08:06:14;;;;;;;26.15;19.30;;;15.50;99.90;;;;;;5013486;28;20451;-63
2023/11/16 08:08:42;;;;;;;25.10;19.05;;;15.50;99.90;;;;;;5012058;28;20529;-66
2023/11/16 08:11:11;;;;;;;23.40;18.95;;;15.50;99.90;;;;;;5013083;28;20092;-65
2023/11/16 08:13:41;;;;;;;21.23;17.08;;;15.50;99.90;;;;;;5012928;28;20085;-65
2023/11/16 08:16:30;;;;;;;26.33;16.30;;;15.50;99.90;;;;;;5011380;28;20079;-64
2023/11/16 08:18:56;;;;;;;29.13;21.23;;;15.40;99.90;;;;;;5005206;28;20083;-63
2023/11/16 08:21:22;;;;;;;27.42;19.98;;;15.40;99.90;;;;;;5015615;28;20110;-65
2023/11/16 08:23:49;;;;;;;30.58;21.20;;;15.50;99.90;;;;;;5012093;28;20093;-65
2023/11/16 08:26:18;;;;;;;28.08;18.95;;;15.50;99.90;;;;;;5012837;28;20087;-64
2023/11/16 08:28:46;;;;;;;25.75;17.95;;;15.40;99.90;;;;;;5012718;28;20191;-64
2023/11/16 08:31:14;;;;;;;27.20;20.13;;;15.40;99.90;;;;;;5011046;28;20094;-64
2023/11/16 08:33:41;;;;;;;23.13;17.30;;;15.40;99.90;;;;;;5011545;28;20083;-65
2023/11/16 08:36:10;;;;;;;23.42;18.67;;;15.50;99.90;;;;;;5011864;28;20088;-65
2023/11/16 08:38:45;;;;;;;24.85;18.23;;;15.50;99.90;;;;;;5012803;28;20109;-66
2023/11/16 08:41:17;;;;;;;23.42;17.92;;;15.50;99.90;;;;;;5010647;28;20141;-65
2023/11/16 08:43:45;;;;;;;25.55;18.42;;;15.60;99.90;;;;;;5011704;28;20089;-63
2023/11/16 08:46:20;;;;;;;28.20;20.98;;;15.60;99.90;;;;;;5011396;28;20537;-62
2023/11/16 08:48:52;;;;;;;23.30;17.38;;;15.60;99.90;;;;;;5010178;28;20101;-66
2023/11/16 08:51:22;;;;;;;22.75;18.67;;;15.60;99.90;;;;;;5012462;28;20094;-63
2023/11/16 08:53:56;;;;;;;25.88;21.30;;;15.60;99.90;;;;;;5011007;28;20087;-65
2023/11/16 08:56:27;;;;;;;23.33;19.42;;;15.60;99.90;;;;;;5012544;28;20435;-63
2023/11/16 08:58:54;;;;;;;22.60;16.73;;;15.50;99.90;;;;;;5009588;28;20080;-63
2023/11/16 09:01:21;;;;;;;24.27;18.05;;;15.50;99.90;;;;;;5010496;28;20084;-64
2023/11/16 09:03:49;;;;;;;25.83;19.92;;;15.60;99.90;;;;;;5012244;28;20086;-65
2023/11/16 09:06:21;;;;;;;27.65;20.25;;;15.60;99.90;;;;;;5012520;28;20087;-64
2023/11/16 09:08:51;;;;;;;30.88;21.98;;;15.60;99.90;;;;;;5012016;28;20169;-65
2023/11/16 09:11:27;;;;;;;22.42;18.20;;;15.70;99.90;;;;;;5011493;28;20176;-64
2023/11/16 09:13:53;;;;;;;21.58;18.10;;;15.70;99.90;;;;;;5012060;28;20074;-64
2023/11/16 09:16:22;;;;;;;33.85;22.25;;;15.70;99.90;;;;;;5012001;28;20080;-63
2023/11/16 09:18:49;;;;;;;28.40;22.60;;;15.60;99.90;;;;;;5011106;28;20441;-63
2023/11/16 09:21:15;;;;;;;28.40;20.65;;;15.50;99.90;;;;;;5010721;28;20082;-64
2023/11/16 09:23:43;;;;;;;22.65;17.98;;;15.60;99.90;;;;;;5010972;28;20090;-64
2023/11/16 09:26:13;;;;;;;24.60;19.20;;;15.60;99.90;;;;;;5011849;28;20139;-64
2023/11/16 09:28:39;;;;;;;27.40;19.27;;;15.60;99.90;;;;;;5010014;28;20144;-64
2023/11/16 09:31:11;;;;;;;22.13;18.40;;;15.60;99.90;;;;;;5011660;28;20503;-64
2023/11/16 09:33:41;;;;;;;24.88;19.10;;;15.60;99.90;;;;;;5009884;28;20093;-63
2023/11/16 09:36:13;;;;;;;27.33;18.38;;;15.60;99.90;;;;;;5011618;28;20142;-63
2023/11/16 09:38:44;;;;;;;27.17;19.27;;;15.60;99.90;;;;;;5011551;28;20094;-62
2023/11/16 09:41:23;;;;;;;23.45;19.02;;;15.50;99.90;;;;;;5011272;28;20530;-65
2023/11/16 09:43:54;;;;;;;25.35;19.00;;;15.60;99.90;;;;;;5010802;28;20173;-63
2023/11/16 09:46:27;;;;;;;21.52;17.73;;;15.60;99.90;;;;;;4992348;28;20570;-64
2023/11/16 09:48:55;;;;;;;26.60;18.48;;;15.50;99.90;;;;;;5008070;28;20441;-63
2023/11/16 09:51:23;;;;;;;25.27;18.85;;;15.60;99.90;;;;;;5011998;28;20096;-63
2023/11/16 09:53:50;;;;;;;23.77;17.17;;;15.50;99.90;;;;;;5011596;28;20075;-64
2023/11/16 09:56:27;;;;;;;25.08;18.45;;;15.60;99.90;;;;;;5009529;28;20110;-63
2023/11/16 09:59:13;;;;;;;26.77;18.17;;;15.60;99.90;;;;;;5011639;28;20078;-63
2023/11/16 10:01:52;;;;;;;23.08;18.15;;;15.50;99.90;;;;;;5010519;28;20141;-64
2023/11/16 10:04:19;;;;;;;21.98;17.92;;;15.50;99.90;;;;;;5011623;28;20136;-63
2023/11/16 10:06:49;;;;;;;24.27;19.95;;;15.50;99.90;;;;;;5009544;28;20077;-63
2023/11/16 10:09:16;;;;;;;28.10;21.23;;;15.50;99.90;;;;;;5010828;28;20173;-64
2023/11/16 10:11:42;;;;;;;32.63;22.55;;;15.60;99.90;;;;;;5011320;28;20105;-65
2023/11/16 10:14:09;;;;;;;29.48;24.85;;;15.60;99.90;;;;;;5009294;28;20164;-64
2023/11/16 10:16:36;;;;;;;27.13;22.40;;;15.60;99.90;;;;;;5011217;28;20082;-64
2023/11/16 10:19:10;;;;;;;27.80;20.92;;;15.60;99.90;;;;;;5010834;28;20124;-64
2023/11/16 10:21:42;;;;;;;31.25;23.08;;;15.60;99.90;;;;;;5011454;28;20090;-64
2023/11/16 10:24:10;;;;;;;30.42;23.42;;;15.60;99.90;;;;;;5009320;28;20096;-64
2023/11/16 10:26:39;;;;;;;32.13;22.92;;;15.60;99.90;;;;;;5010799;28;20151;-65
2023/11/16 10:29:06;;;;;;;27.45;19.77;;;15.60;99.90;;;;;;5011072;28;20086;-64
2023/11/16 10:31:35;;;;;;;29.27;22.58;;;15.60;99.90;;;;;;5009787;28;20102;-63
2023/11/16 10:34:05;;;;;;;25.77;19.23;;;15.70;99.90;;;;;;5010779;28;20078;-65
2023/11/16 10:36:32;;;;;;;25.83;21.70;;;15.70;99.90;;;;;;5010702;28;20093;-64
2023/11/16 10:39:01;;;;;;;28.38;21.10;;;15.60;99.90;;;;;;5008922;28;20114;-64
2023/11/16 10:41:29;;;;;;;28.20;21.20;;;15.70;99.90;;;;;;5007524;28;20125;-64
2023/11/16 10:43:56;;;;;;;28.08;23.38;;;15.70;99.90;;;;;;5010417;28;20125;-64
2023/11/16 10:46:29;;;;;;;31.05;24.73;;;15.70;99.90;;;;;;5010614;28;20078;-63
2023/11/16 10:48:56;;;;;;;30.08;25.00;;;15.70;99.90;;;;;;5008713;28;20082;-63
2023/11/16 10:51:27;;;;;;;28.38;23.35;;;15.60;99.90;;;;;;5010596;28;20090;-67
2023/11/16 10:53:56;;;;;;;28.23;23.35;;;15.60;99.90;;;;;;5010415;28;20077;-64
2023/11/16 10:56:24;;;;;;;31.77;24.52;;;15.60;99.90;;;;;;5009085;28;20086;-63
2023/11/16 10:58:52;;;;;;;34.58;27.33;;;15.60;99.90;;;;;;5008591;28;20164;-64
2023/11/16 11:01:20;;;;;;;35.22;27.73;;;15.60;99.90;;;;;;5008720;28;20086;-64
2023/11/16 11:03:49;;;;;;;42.08;31.92;;;15.50;99.90;;;;;;5010356;28;20082;-64
2023/11/16 11:06:22;;;;;;;38.95;30.05;;;15.40;99.90;;;;;;5010449;28;20456;-64
2023/11/16 11:08:53;;;;;;;39.63;31.02;;;15.40;99.90;;;;;;5010126;28;20088;-67
2023/11/16 11:11:24;;;;;;;39.10;31.00;;;15.40;99.90;;;;;;5008661;28;20177;-65
2023/11/16 11:13:54;;;;;;;35.05;24.40;;;15.50;99.90;;;;;;5015074;28;20151;-69
2023/11/16 11:16:25;;;;;;;38.67;29.23;;;15.70;99.90;;;;;;5014283;28;20151;-70
2023/11/16 11:18:52;;;;;;;39.63;30.60;;;15.80;99.90;;;;;;5012090;28;20567;-68
2023/11/16 11:21:21;;;;;;;39.28;30.45;;;15.80;99.90;;;;;;5014219;28;20090;-71
2023/11/16 11:24:08;;;;;;;39.45;31.27;;;15.60;99.90;;;;;;5014020;28;20089;-67
2023/11/16 11:26:48;;;;;;;38.97;28.83;;;15.60;99.90;;;;;;5012570;28;20169;-68
2023/11/16 11:29:16;;;;;;;45.70;29.30;;;15.60;99.90;;;;;;5012193;28;20092;-70
2023/11/16 11:32:10;;;;;;;34.30;26.13;;;15.80;99.90;;;;;;5012776;28;20077;-68
2023/11/16 11:34:36;;;;;;;38.67;34.47;;;16.00;99.90;;;;;;5010744;28;20547;-69
2023/11/16 11:37:07;;;;;;;31.67;26.42;;;16.20;99.90;;;;;;5013480;28;20078;-69
2023/11/16 11:39:41;;;;;;;30.85;22.63;;;16.20;99.90;;;;;;5011633;28;20083;-68
2023/11/16 11:42:10;;;;;;;34.88;24.65;;;16.10;99.90;;;;;;5009676;28;20101;-69
2023/11/16 11:44:58;;;;;;;30.17;21.88;;;16.20;99.90;;;;;;5013464;28;20084;-68
2023/11/16 11:47:25;;;;;;;32.93;24.60;;;16.20;99.90;;;;;;5011521;28;20086;-68
2023/11/16 11:49:52;;;;;;;29.17;23.50;;;16.20;99.90;;;;;;5013187;28;20344;-68
2023/11/16 11:52:20;;;;;;;32.85;24.92;;;16.10;99.90;;;;;;5012091;28;20157;-67
2023/11/16 11:54:47;;;;;;;37.60;26.85;;;16.00;99.90;;;;;;5013570;28;20082;-67
2023/11/16 11:57:16;;;;;;;33.22;25.80;;;16.00;99.90;;;;;;5013446;28;20070;-68
2023/11/16 11:59:45;;;;;;;34.75;24.88;;;15.90;99.90;;;;;;5011930;28;20092;-67
2023/11/16 12:02:13;;;;;;;28.55;21.67;;;15.90;99.90;;;;;;5009613;28;20609;-68
2023/11/16 12:04:40;;;;;;;29.70;22.52;;;15.90;99.90;;;;;;5012248;28;20090;-68
2023/11/16 12:07:08;;;;;;;32.67;22.63;;;16.00;99.90;;;;;;5012994;28;20188;-69
2023/11/16 12:09:41;;;;;;;28.42;22.67;;;16.00;99.90;;;;;;5013171;28;20097;-67
2023/11/16 12:12:09;;;;;;;25.20;20.80;;;16.00;99.90;;;;;;5013147;28;20088;-69
2023/11/16 12:14:40;;;;;;;32.38;24.13;;;16.00;99.90;;;;;;5011063;28;20578;-68
2023/11/16 12:17:07;;;;;;;32.63;24.40;;;16.00;99.90;;;;;;5009238;28;20555;-68
2023/11/16 12:19:37;;;;;;;27.65;19.52;;;16.00;99.90;;;;;;5012773;28;20119;-67
2023/11/16 12:22:08;;;;;;;26.33;22.08;;;16.00;99.90;;;;;;5011297;28;20078;-68
2023/11/16 12:24:35;;;;;;;26.80;21.00;;;16.00;99.90;;;;;;5011937;28;20076;-67
2023/11/16 12:27:01;;;;;;;24.85;19.65;;;16.10;99.90;;;;;;5011474;28;20080;-67
2023/11/16 12:29:28;;;;;;;25.67;19.35;;;16.00;99.90;;;;;;5015098;28;20070;-67
2023/11/16 12:31:55;;;;;;;27.63;21.15;;;16.00;99.90;;;;;;5013473;28;20105;-67
2023/11/16 12:34:25;;;;;;;28.60;20.95;;;16.00;99.90;;;;;;5013025;28;20508;-67
2023/11/16 12:36:55;;;;;;;29.42;22.08;;;15.90;99.90;;;;;;5011309;28;20132;-67